Search for airport 
image banner adimage banner adimage banner ad
image banner ad

38CN - Sanborn

Located in Meridian, United States

ICAO - 38CN, IATA -

Data provided by Airmate  

General information

Coordinates: N39°6'34" W121°53'2"
Elevation is 36 feet MSL.
Magnetic variation is 16° East
View others Airports in California

Operational data

Special qualification required
Current time UTC:
Current local time:
Weather at : KMYV - Yuba County ( 27 km )
METAR: KMYV 231453Z AUTO 35006KT 10SM CLR 19/07 A2994 RMK AO2 SLP143 T01940072 53005
View NOTAMs / SUP AIP / TFR affecting this airport [VIEW]
Communications frequencies: [VIEW]

Runways:

RWY identifierQFULength (ft)Width (ft)SurfaceLDA (ft)
16274595OTHER
34274595OTHER

Airport contact information

Address: Meridian United States

Satellite view of 38CN